首页
METAR-TAF:

METAR-TAF

机场 :

靜岡機場

靜岡, 日本

纬度: 34-47-46N, 经度: 138-11-22E, 海拔: 132米

当前天气观测

该预报发布于31分钟前的10:00 UTC
风速6节,风向西南
温度 29°C
湿度 79%
气压 1008 hPa
能见度10公里或以上
少量云层高于3000英尺
多云

METAR: RJNS 221000Z 23006KT 9999 FEW030 BKN/// 29/25 Q1008

时间: 19:31 (10:31 UTC)

预报

该预报发布于5小时和23分钟前的05:08 UTC
预报有效从22日的 06点(UTC)到 23日的 12点(UTC)
风速12节,风向西转西南
能见度10公里或以上
少量云层高于1500英尺
散云层高于4000英尺
成为
从 22日的 15点(UTC)到 22日的 17点(UTC)
风速4节,风向西北
成为
从 23日的 00点(UTC)到 23日的 03点(UTC)
风速12节,风向
成为
从 23日的 09点(UTC)到 23日的 12点(UTC)
风速4节,风向东北

TAF: RJNS 220508Z 2206/2312 25012KT 9999 FEW015 SCT040 BECMG 2215/2217 32004KT BECMG 2300/2303 18012KT BECMG 2309/2312 04004KT

超过4000个机场的气象观测和天气预报(METAR&TAF报告)。

可查询的气象台以黄色和红色小点在地图上表示。

将鼠标移到小点上方,可查看气象台名称。

然后点击查看天气观测和预报。

如需切换地图:点击带黑十字的绿色按钮放大地图;点击带横线的绿色按钮缩小地图;或者点击绿色箭头查看邻近地区的地图。


METAR-TAF: